createdAt,value
2017-09-22T00:01:47.026Z,10.10
2017-09-22T00:04:18.558Z,10.10
2017-09-22T00:06:46.350Z,10.10
2017-09-22T00:09:14.107Z,10.00
2017-09-22T00:11:41.953Z,10.00
2017-09-22T00:14:09.645Z,10.00
2017-09-22T00:16:37.449Z,10.10
2017-09-22T00:19:05.260Z,10.10
2017-09-22T00:21:33.229Z,10.10
2017-09-22T00:24:00.994Z,10.20
2017-09-22T00:26:28.746Z,10.20
2017-09-22T00:28:56.449Z,10.20
2017-09-22T00:31:24.214Z,10.30
2017-09-22T00:33:52.341Z,10.30
2017-09-22T00:36:20.086Z,10.30
2017-09-22T00:38:47.879Z,10.20
2017-09-22T00:41:15.808Z,10.20
2017-09-22T00:43:44.617Z,10.20
2017-09-22T00:46:12.474Z,10.20
2017-09-22T00:48:40.217Z,10.20
2017-09-22T00:51:07.963Z,10.10
2017-09-22T00:53:35.697Z,10.10
2017-09-22T00:56:03.798Z,10.20
2017-09-22T00:58:31.639Z,10.10
2017-09-22T01:00:59.515Z,10.10
2017-09-22T01:03:27.405Z,10.10
2017-09-22T01:05:55.228Z,10.10
2017-09-22T01:08:23.081Z,10.00
2017-09-22T01:10:50.794Z,10.10
2017-09-22T01:13:18.383Z,10.10
2017-09-22T01:15:46.055Z,10.10
2017-09-22T01:18:14.418Z,10.10
2017-09-22T01:20:42.792Z,10.10
2017-09-22T01:23:10.384Z,10.00
2017-09-22T01:25:38.020Z,10.00
2017-09-22T01:28:05.646Z,10.00
2017-09-22T01:30:33.288Z,10.10
2017-09-22T01:33:00.902Z,10.10
2017-09-22T01:35:28.522Z,10.10
2017-09-22T01:37:56.134Z,10.10
2017-09-22T01:40:23.777Z,10.10
2017-09-22T01:42:51.371Z,10.10
2017-09-22T01:45:19.252Z,10.00
2017-09-22T01:47:46.896Z,10.00
2017-09-22T01:50:14.559Z,10.00
2017-09-22T01:52:42.156Z,10.00
2017-09-22T01:55:09.773Z,10.00
2017-09-22T01:57:37.387Z,10.00
2017-09-22T02:00:05.078Z,10.00
2017-09-22T02:02:32.730Z,10.00
2017-09-22T02:05:00.340Z,9.90
2017-09-22T02:07:27.947Z,9.90
2017-09-22T02:09:55.558Z,9.90
2017-09-22T02:12:23.889Z,9.80
2017-09-22T02:14:51.597Z,9.80
2017-09-22T02:17:19.163Z,9.80
2017-09-22T02:19:47.391Z,9.80
2017-09-22T02:22:14.990Z,9.80
2017-09-22T02:24:42.521Z,9.80
2017-09-22T02:27:10.289Z,9.70
2017-09-22T02:29:37.960Z,9.70
2017-09-22T02:32:05.661Z,9.70
2017-09-22T02:34:33.374Z,9.70
2017-09-22T02:37:01.050Z,9.70
2017-09-22T02:39:28.739Z,9.70
2017-09-22T02:41:57.253Z,9.80
2017-09-22T02:44:25.036Z,9.80
2017-09-22T02:46:52.727Z,9.80
2017-09-22T02:49:20.461Z,9.90
2017-09-22T02:51:48.168Z,9.90
2017-09-22T02:54:15.781Z,9.90
2017-09-22T02:56:43.554Z,10.00
2017-09-22T02:59:11.203Z,10.00
2017-09-22T03:01:38.861Z,10.00
2017-09-22T03:04:06.622Z,10.00
2017-09-22T03:06:34.492Z,10.00
2017-09-22T03:09:02.150Z,10.00
2017-09-22T03:11:29.904Z,9.90
2017-09-22T03:13:57.628Z,9.90
2017-09-22T03:16:25.347Z,9.90
2017-09-22T03:18:53.177Z,9.80
2017-09-22T03:21:20.949Z,9.80
2017-09-22T03:23:48.572Z,9.80
2017-09-22T03:26:16.218Z,9.90
2017-09-22T03:28:43.797Z,9.80
2017-09-22T03:31:11.406Z,9.80
2017-09-22T03:33:38.997Z,9.80
2017-09-22T03:36:06.675Z,9.80
2017-09-22T03:38:34.392Z,9.80
2017-09-22T03:41:02.074Z,9.80
2017-09-22T03:43:30.417Z,9.70
2017-09-22T03:45:57.992Z,9.60
2017-09-22T03:48:25.657Z,9.70
2017-09-22T03:50:53.247Z,9.70
2017-09-22T03:53:20.916Z,9.70
2017-09-22T03:55:48.528Z,9.70
2017-09-22T03:58:16.129Z,9.60
2017-09-22T04:00:44.514Z,9.70
2017-09-22T04:03:12.853Z,9.70
2017-09-22T04:05:40.509Z,9.50
2017-09-22T04:08:08.134Z,9.60
2017-09-22T04:10:35.730Z,9.70
2017-09-22T04:13:03.310Z,9.70
2017-09-22T04:15:30.928Z,9.70
2017-09-22T04:18:00.284Z,9.70
2017-09-22T04:20:27.969Z,9.60
2017-09-22T04:22:55.681Z,9.60
2017-09-22T04:25:23.370Z,9.60
2017-09-22T04:27:51.154Z,9.60
2017-09-22T04:30:22.591Z,9.60
2017-09-22T04:32:52.823Z,9.70
2017-09-22T04:35:23.580Z,9.70
2017-09-22T04:37:51.277Z,9.80
2017-09-22T04:40:19.858Z,9.80
2017-09-22T04:42:47.634Z,9.80
2017-09-22T04:45:15.384Z,9.90
2017-09-22T04:47:43.241Z,9.90
2017-09-22T04:50:10.905Z,10.00
2017-09-22T04:52:38.555Z,10.00
2017-09-22T04:55:06.329Z,10.00
2017-09-22T04:57:33.932Z,10.00
2017-09-22T05:00:03.361Z,10.00
2017-09-22T05:02:31.137Z,10.00
2017-09-22T05:04:58.801Z,10.00
2017-09-22T05:07:30.952Z,10.00
2017-09-22T05:09:58.616Z,10.10
2017-09-22T05:12:26.247Z,10.00
2017-09-22T05:14:53.832Z,10.00
2017-09-22T05:17:21.700Z,10.00
2017-09-22T05:19:49.416Z,10.10
2017-09-22T05:22:17.100Z,10.10
2017-09-22T05:24:44.784Z,10.20
2017-09-22T05:27:12.371Z,10.20
2017-09-22T05:29:46.062Z,10.20
2017-09-22T05:32:13.705Z,10.20
2017-09-22T05:34:41.256Z,10.20
2017-09-22T05:37:08.842Z,10.30
2017-09-22T05:39:36.419Z,10.30
2017-09-22T05:42:03.962Z,10.30
2017-09-22T05:44:37.664Z,10.40
2017-09-22T05:47:05.201Z,10.40
2017-09-22T05:49:32.719Z,10.50
2017-09-22T05:52:00.269Z,10.50
2017-09-22T05:54:28.558Z,10.70
2017-09-22T05:56:56.089Z,10.60
2017-09-22T05:59:23.600Z,10.80
2017-09-22T06:01:51.128Z,10.90
2017-09-22T06:04:18.646Z,10.90
2017-09-22T06:06:46.162Z,11.00
2017-09-22T06:09:13.684Z,11.20
2017-09-22T06:11:42.032Z,11.60
2017-09-22T06:14:09.631Z,11.50
2017-09-22T06:16:38.289Z,11.80
2017-09-22T06:19:05.891Z,11.80
2017-09-22T06:21:33.449Z,11.90
2017-09-22T06:24:01.021Z,12.00
2017-09-22T06:26:28.555Z,12.10
2017-09-22T06:28:56.128Z,12.10
2017-09-22T06:31:23.703Z,12.20
2017-09-22T06:33:51.236Z,12.20
2017-09-22T06:36:19.161Z,12.20
2017-09-22T06:38:46.729Z,12.20
2017-09-22T06:41:14.270Z,12.20
2017-09-22T06:43:50.058Z,12.20
2017-09-22T06:46:18.372Z,12.20
2017-09-22T06:48:45.884Z,12.20
2017-09-22T06:51:14.028Z,12.30
2017-09-22T06:53:41.619Z,12.30
2017-09-22T06:56:09.141Z,12.20
2017-09-22T06:58:36.693Z,12.20
2017-09-22T07:01:04.628Z,12.20
2017-09-22T07:03:32.167Z,12.10
2017-09-22T07:05:59.685Z,12.10
2017-09-22T07:08:27.244Z,12.10
2017-09-22T07:10:54.775Z,12.10
2017-09-22T07:13:22.284Z,12.00
2017-09-22T07:15:50.053Z,12.00
2017-09-22T07:18:17.577Z,11.90
2017-09-22T07:20:45.118Z,11.80
2017-09-22T07:23:12.632Z,11.80
2017-09-22T07:25:40.181Z,11.80
2017-09-22T07:28:07.705Z,11.70
2017-09-22T07:30:35.221Z,11.70
2017-09-22T07:33:03.512Z,11.60
2017-09-22T07:35:31.024Z,11.50
2017-09-22T07:37:58.590Z,11.60
2017-09-22T07:40:26.124Z,11.60
2017-09-22T07:42:56.774Z,11.60
2017-09-22T07:45:24.301Z,11.60
2017-09-22T07:47:51.817Z,11.60
2017-09-22T07:50:19.353Z,11.70
2017-09-22T07:52:46.877Z,11.70
2017-09-22T07:55:14.419Z,11.80
2017-09-22T07:57:41.942Z,11.80
2017-09-22T08:00:09.481Z,11.80
2017-09-22T08:02:37.001Z,12.00
2017-09-22T08:05:04.554Z,12.10
2017-09-22T08:07:32.084Z,12.20
2017-09-22T08:09:59.610Z,12.30
2017-09-22T08:12:27.141Z,12.40
2017-09-22T08:14:54.654Z,12.50
2017-09-22T08:17:22.201Z,12.60
2017-09-22T08:19:49.726Z,12.60
2017-09-22T08:22:17.276Z,12.60
2017-09-22T08:24:44.786Z,12.80
2017-09-22T08:27:13.073Z,13.00
2017-09-22T08:29:41.391Z,13.10
2017-09-22T08:32:08.916Z,13.10
2017-09-22T08:34:37.217Z,13.20
2017-09-22T08:37:04.725Z,13.10
2017-09-22T08:39:32.244Z,13.30
2017-09-22T08:41:59.754Z,13.40
2017-09-22T08:44:29.152Z,13.50
2017-09-22T08:46:56.688Z,13.50
2017-09-22T08:49:24.197Z,13.60
2017-09-22T08:51:51.722Z,13.60
2017-09-22T08:54:19.233Z,13.70
2017-09-22T08:56:56.510Z,13.70
2017-09-22T08:59:24.038Z,13.80
2017-09-22T09:02:01.929Z,14.00
2017-09-22T09:04:29.436Z,14.10
2017-09-22T09:07:00.548Z,14.00
2017-09-22T09:09:28.832Z,13.90
2017-09-22T09:11:57.113Z,13.90
2017-09-22T09:14:24.657Z,13.80
2017-09-22T09:16:52.942Z,14.10
2017-09-22T09:19:21.239Z,14.10
2017-09-22T09:21:48.757Z,14.00
2017-09-22T09:24:16.344Z,14.10
2017-09-22T09:26:43.860Z,14.20
2017-09-22T09:29:11.373Z,14.20
2017-09-22T09:31:38.917Z,14.10
2017-09-22T09:34:11.356Z,14.10
2017-09-22T09:36:38.884Z,14.20
2017-09-22T09:39:06.408Z,14.30
2017-09-22T09:41:33.920Z,14.30
2017-09-22T09:44:03.434Z,14.30
2017-09-22T09:46:30.931Z,14.30
2017-09-22T09:48:58.521Z,14.40
2017-09-22T09:51:26.025Z,14.40
2017-09-22T09:53:54.329Z,14.60
2017-09-22T09:56:21.850Z,14.50
2017-09-22T09:58:49.372Z,14.60
2017-09-22T10:01:16.885Z,14.70
2017-09-22T10:03:46.160Z,14.80
2017-09-22T10:06:13.703Z,14.60
2017-09-22T10:08:41.214Z,14.80
2017-09-22T10:11:14.797Z,14.90
2017-09-22T10:13:44.083Z,14.90
2017-09-22T10:16:11.616Z,14.90
2017-09-22T10:18:39.125Z,15.00
2017-09-22T10:21:06.659Z,15.00
2017-09-22T10:23:34.169Z,15.10
2017-09-22T10:26:11.099Z,15.20
2017-09-22T10:28:38.611Z,15.30
2017-09-22T10:31:06.126Z,15.40
2017-09-22T10:33:34.466Z,15.40
2017-09-22T10:36:01.968Z,15.30
2017-09-22T10:38:29.504Z,15.40
2017-09-22T10:40:57.008Z,15.40
2017-09-22T10:43:24.543Z,15.50
2017-09-22T10:45:52.080Z,15.50
2017-09-22T10:48:19.617Z,15.60
2017-09-22T10:50:47.120Z,15.60
2017-09-22T10:53:15.393Z,15.70
2017-09-22T10:55:42.925Z,15.60
2017-09-22T10:58:10.425Z,15.70
2017-09-22T11:00:37.985Z,15.80
2017-09-22T11:03:05.486Z,15.90
2017-09-22T11:05:33.027Z,15.90
2017-09-22T11:08:00.540Z,16.00
2017-09-22T11:10:28.088Z,16.10
2017-09-22T11:13:00.045Z,16.10
2017-09-22T11:15:28.358Z,16.10
2017-09-22T11:17:55.869Z,16.00
2017-09-22T11:20:23.397Z,16.00
2017-09-22T11:22:50.944Z,15.90
2017-09-22T11:25:18.465Z,15.90
2017-09-22T11:27:46.765Z,15.80
2017-09-22T11:30:14.283Z,15.70
2017-09-22T11:32:41.808Z,15.80
2017-09-22T11:35:09.322Z,15.80
2017-09-22T11:37:37.623Z,15.90
2017-09-22T11:40:05.133Z,15.80
2017-09-22T11:42:32.679Z,16.00
2017-09-22T11:45:00.221Z,16.10
2017-09-22T11:47:28.008Z,16.10
2017-09-22T11:49:55.598Z,16.00
2017-09-22T11:52:23.133Z,16.00
2017-09-22T11:54:50.697Z,16.00
2017-09-22T11:57:18.243Z,16.00
2017-09-22T11:59:45.765Z,15.90
2017-09-22T12:02:13.619Z,16.00
2017-09-22T12:04:41.133Z,16.00
2017-09-22T12:07:08.687Z,16.10
2017-09-22T12:09:36.221Z,16.10
2017-09-22T12:12:03.788Z,16.20
2017-09-22T12:14:31.292Z,16.20
2017-09-22T12:16:59.584Z,16.20
2017-09-22T12:19:27.128Z,16.10
2017-09-22T12:22:00.884Z,16.30
2017-09-22T12:24:28.403Z,16.30
2017-09-22T12:26:55.926Z,16.40
2017-09-22T12:29:23.457Z,16.50
2017-09-22T12:31:50.976Z,16.60
2017-09-22T12:34:18.490Z,16.60
2017-09-22T12:36:46.032Z,16.60
2017-09-22T12:39:13.565Z,16.60
2017-09-22T12:41:41.093Z,16.50
2017-09-22T12:44:09.376Z,16.50
2017-09-22T12:46:38.461Z,16.60
2017-09-22T12:49:06.738Z,16.70
2017-09-22T12:51:35.032Z,16.80
2017-09-22T12:54:03.476Z,16.60
2017-09-22T12:56:30.996Z,16.80
2017-09-22T12:58:58.923Z,16.90
2017-09-22T13:01:27.203Z,17.00
2017-09-22T13:03:54.710Z,16.80
2017-09-22T13:06:22.249Z,17.00
2017-09-22T13:08:49.777Z,17.10
2017-09-22T13:11:17.310Z,17.20
2017-09-22T13:13:44.832Z,17.10
2017-09-22T13:16:12.341Z,17.00
2017-09-22T13:18:39.869Z,17.10
2017-09-22T13:21:15.850Z,17.00
2017-09-22T13:23:43.369Z,17.00
2017-09-22T13:26:18.770Z,17.10
2017-09-22T13:28:46.308Z,17.20
2017-09-22T13:31:13.821Z,17.30
2017-09-22T13:33:41.369Z,17.30
2017-09-22T13:36:08.866Z,17.20
2017-09-22T13:38:36.372Z,17.30
2017-09-22T13:41:03.899Z,17.50
2017-09-22T13:43:31.408Z,17.50
2017-09-22T13:45:58.950Z,17.50
2017-09-22T13:48:26.465Z,17.60
2017-09-22T13:50:53.996Z,17.60
2017-09-22T13:53:21.544Z,17.70
2017-09-22T13:55:49.096Z,17.70
2017-09-22T13:58:16.620Z,17.80
2017-09-22T14:00:44.890Z,17.80
2017-09-22T14:03:12.420Z,17.70
2017-09-22T14:05:39.935Z,17.70
2017-09-22T14:08:07.463Z,17.70
2017-09-22T14:10:34.998Z,17.80
2017-09-22T14:13:02.521Z,17.80
2017-09-22T14:15:30.057Z,17.80
2017-09-22T14:17:58.445Z,17.70
2017-09-22T14:20:25.976Z,17.80
2017-09-22T14:22:53.484Z,17.80
2017-09-22T14:25:21.010Z,17.80
2017-09-22T14:27:56.819Z,17.80
2017-09-22T14:30:24.352Z,17.80
2017-09-22T14:32:51.869Z,17.90
2017-09-22T14:35:19.413Z,17.80
2017-09-22T14:37:46.975Z,17.90
2017-09-22T14:40:14.510Z,17.90
2017-09-22T14:42:42.098Z,18.00
2017-09-22T14:45:09.621Z,17.90
2017-09-22T14:47:37.218Z,17.80
2017-09-22T14:50:04.734Z,17.80
2017-09-22T14:52:32.252Z,17.80
2017-09-22T14:55:00.565Z,17.70
2017-09-22T14:57:28.097Z,17.60
2017-09-22T14:59:55.629Z,17.70
2017-09-22T15:02:23.147Z,17.60
2017-09-22T15:04:50.705Z,17.60
2017-09-22T15:07:18.232Z,17.40
2017-09-22T15:09:45.733Z,17.30
2017-09-22T15:12:13.256Z,17.20
2017-09-22T15:14:40.789Z,17.20
2017-09-22T15:17:08.314Z,17.30
2017-09-22T15:19:35.814Z,17.30
2017-09-22T15:22:06.785Z,17.40
2017-09-22T15:24:35.061Z,17.30
2017-09-22T15:27:02.578Z,17.30
2017-09-22T15:29:30.113Z,17.30
2017-09-22T15:31:57.616Z,17.30
2017-09-22T15:34:28.499Z,17.30
2017-09-22T15:36:56.005Z,17.40
2017-09-22T15:39:23.545Z,17.40
2017-09-22T15:41:51.049Z,17.40
2017-09-22T15:44:22.766Z,17.30
2017-09-22T15:46:50.290Z,17.20
2017-09-22T15:49:21.227Z,17.30
2017-09-22T15:51:48.772Z,17.30
2017-09-22T15:54:17.036Z,17.20
2017-09-22T15:56:45.312Z,17.20
2017-09-22T15:59:13.584Z,17.10
2017-09-22T16:01:45.613Z,17.00
2017-09-22T16:04:13.125Z,16.90
2017-09-22T16:06:40.624Z,16.90
2017-09-22T16:09:08.158Z,16.80
2017-09-22T16:11:35.661Z,16.70
2017-09-22T16:14:03.196Z,16.60
2017-09-22T16:16:30.701Z,16.60
2017-09-22T16:18:58.238Z,16.50
2017-09-22T16:21:25.752Z,16.50
2017-09-22T16:23:53.249Z,16.40
2017-09-22T16:26:20.770Z,16.40
2017-09-22T16:28:48.270Z,16.30
2017-09-22T16:31:15.792Z,16.30
2017-09-22T16:33:43.617Z,16.30
2017-09-22T16:36:11.185Z,16.20
2017-09-22T16:38:38.702Z,16.10
2017-09-22T16:41:06.233Z,16.10
2017-09-22T16:43:33.734Z,16.00
2017-09-22T16:46:01.248Z,15.90
2017-09-22T16:48:28.772Z,15.80
2017-09-22T16:50:57.045Z,15.60
2017-09-22T16:53:25.329Z,15.50
2017-09-22T16:55:52.837Z,15.40
2017-09-22T16:58:20.382Z,15.30
2017-09-22T17:00:47.897Z,15.20
2017-09-22T17:03:15.410Z,15.10
2017-09-22T17:05:42.948Z,15.10
2017-09-22T17:08:13.391Z,15.00
2017-09-22T17:10:40.926Z,14.90
2017-09-22T17:13:08.443Z,14.80
2017-09-22T17:15:35.969Z,14.80
2017-09-22T17:18:03.488Z,14.70
2017-09-22T17:20:31.031Z,14.60
2017-09-22T17:23:01.789Z,14.60
2017-09-22T17:25:29.308Z,14.60
2017-09-22T17:27:57.617Z,14.50
2017-09-22T17:30:25.121Z,14.40
2017-09-22T17:32:52.647Z,14.50
2017-09-22T17:35:20.159Z,14.40
2017-09-22T17:37:50.826Z,14.30
2017-09-22T17:40:18.338Z,14.30
2017-09-22T17:42:45.874Z,14.30
2017-09-22T17:45:13.373Z,14.20
2017-09-22T17:47:41.690Z,14.10
2017-09-22T17:50:09.234Z,14.00
2017-09-22T17:52:36.728Z,14.10
2017-09-22T17:55:04.245Z,14.00
2017-09-22T17:57:31.753Z,14.00
2017-09-22T17:59:59.288Z,14.00
2017-09-22T18:02:26.802Z,14.00
2017-09-22T18:04:54.319Z,14.00
2017-09-22T18:07:21.839Z,13.90
2017-09-22T18:09:49.341Z,13.90
2017-09-22T18:12:16.878Z,13.90
2017-09-22T18:14:44.400Z,13.90
2017-09-22T18:17:11.922Z,13.90
2017-09-22T18:19:39.441Z,13.90
2017-09-22T18:22:06.985Z,13.80
2017-09-22T18:24:34.490Z,13.80
2017-09-22T18:27:02.021Z,13.80
2017-09-22T18:29:29.561Z,13.80
2017-09-22T18:31:57.077Z,13.70
2017-09-22T18:34:24.601Z,13.70
2017-09-22T18:36:52.107Z,13.70
2017-09-22T18:39:20.409Z,13.70
2017-09-22T18:41:47.904Z,13.60
2017-09-22T18:44:15.440Z,13.60
2017-09-22T18:46:42.966Z,13.60
2017-09-22T18:49:10.485Z,13.50
2017-09-22T18:51:38.010Z,13.50
2017-09-22T18:54:05.543Z,13.50
2017-09-22T18:56:33.844Z,13.40
2017-09-22T18:59:01.350Z,13.30
2017-09-22T19:01:28.885Z,13.40
2017-09-22T19:03:56.427Z,13.40
2017-09-22T19:06:23.966Z,13.30
2017-09-22T19:08:51.512Z,13.30
2017-09-22T19:11:19.797Z,13.30
2017-09-22T19:13:47.323Z,13.20
2017-09-22T19:16:14.855Z,13.30
2017-09-22T19:18:42.390Z,13.30
2017-09-22T19:21:09.921Z,13.20
2017-09-22T19:23:38.207Z,13.10
2017-09-22T19:26:05.747Z,13.10
2017-09-22T19:28:36.306Z,13.10
2017-09-22T19:31:03.849Z,13.10
2017-09-22T19:33:31.377Z,13.00
2017-09-22T19:35:58.928Z,13.00
2017-09-22T19:38:26.491Z,12.90
2017-09-22T19:40:54.012Z,12.90
2017-09-22T19:43:21.549Z,12.80
2017-09-22T19:45:49.158Z,12.80
2017-09-22T19:48:16.729Z,12.80
2017-09-22T19:50:44.263Z,12.80
2017-09-22T19:53:12.796Z,12.70
2017-09-22T19:55:41.089Z,12.70
2017-09-22T19:58:08.597Z,12.60
2017-09-22T20:00:36.141Z,12.70
2017-09-22T20:03:04.806Z,12.70
2017-09-22T20:05:32.401Z,12.80
2017-09-22T20:08:00.017Z,12.80
2017-09-22T20:10:27.717Z,12.80
2017-09-22T20:12:55.293Z,12.90
2017-09-22T20:15:22.901Z,12.90
2017-09-22T20:17:50.469Z,12.90
2017-09-22T20:20:18.007Z,12.90
2017-09-22T20:22:45.554Z,12.90
2017-09-22T20:25:13.057Z,12.90
2017-09-22T20:27:40.589Z,12.90
2017-09-22T20:30:08.103Z,13.00
2017-09-22T20:32:36.413Z,12.90
2017-09-22T20:35:03.990Z,12.90
2017-09-22T20:37:31.534Z,12.90
2017-09-22T20:39:59.164Z,12.90
2017-09-22T20:42:26.685Z,12.90
2017-09-22T20:44:54.349Z,12.80
2017-09-22T20:47:21.894Z,12.80
2017-09-22T20:49:49.441Z,12.80
2017-09-22T20:52:17.340Z,12.80
2017-09-22T20:54:46.069Z,12.80
2017-09-22T20:57:14.949Z,12.70
2017-09-22T20:59:42.573Z,12.60
2017-09-22T21:02:10.144Z,12.70
2017-09-22T21:04:37.931Z,12.70
2017-09-22T21:07:05.507Z,12.60
2017-09-22T21:09:35.074Z,12.60
2017-09-22T21:12:03.044Z,12.50
2017-09-22T21:14:30.672Z,12.50
2017-09-22T21:16:58.525Z,12.50
2017-09-22T21:19:26.122Z,12.50
2017-09-22T21:21:54.078Z,12.50
2017-09-22T21:24:21.960Z,12.50
2017-09-22T21:26:49.560Z,12.50
2017-09-22T21:29:17.112Z,12.50
2017-09-22T21:31:44.653Z,12.50
2017-09-22T21:34:12.189Z,12.50
2017-09-22T21:36:39.728Z,12.40
2017-09-22T21:39:08.005Z,12.40
2017-09-22T21:41:35.550Z,12.30
2017-09-22T21:44:03.848Z,12.30
2017-09-22T21:46:31.384Z,12.30
2017-09-22T21:48:58.896Z,12.30
2017-09-22T21:51:26.437Z,12.30
2017-09-22T21:53:53.957Z,12.20
2017-09-22T21:56:21.465Z,12.20
2017-09-22T21:58:49.008Z,12.10
2017-09-22T22:01:16.573Z,12.10
2017-09-22T22:03:49.737Z,12.20
2017-09-22T22:06:22.877Z,12.10
2017-09-22T22:08:56.098Z,12.10
2017-09-22T22:11:23.645Z,12.20
2017-09-22T22:13:51.195Z,12.20
2017-09-22T22:16:18.737Z,12.20
2017-09-22T22:18:46.291Z,12.30
2017-09-22T22:21:13.857Z,12.20
2017-09-22T22:23:41.402Z,12.20
2017-09-22T22:26:08.961Z,12.30
2017-09-22T22:28:36.518Z,12.30
2017-09-22T22:31:04.861Z,12.30
2017-09-22T22:33:32.427Z,12.20
2017-09-22T22:35:59.980Z,12.30
2017-09-22T22:38:27.554Z,12.20
2017-09-22T22:40:55.841Z,12.20
2017-09-22T22:43:24.140Z,12.10
2017-09-22T22:45:51.695Z,12.10
2017-09-22T22:48:20.021Z,12.10
2017-09-22T22:50:47.546Z,12.00
2017-09-22T22:53:15.113Z,12.10
2017-09-22T22:55:42.621Z,12.00
2017-09-22T22:58:10.138Z,12.00
2017-09-22T23:00:37.685Z,12.00
2017-09-22T23:03:05.201Z,12.00
2017-09-22T23:05:32.721Z,11.90
2017-09-22T23:08:00.267Z,11.90
2017-09-22T23:10:27.809Z,11.90
2017-09-22T23:12:55.369Z,11.80
2017-09-22T23:15:23.695Z,11.70
2017-09-22T23:17:51.220Z,11.60
2017-09-22T23:20:18.740Z,11.70
2017-09-22T23:22:46.269Z,11.70
2017-09-22T23:25:13.781Z,11.60
2017-09-22T23:27:42.077Z,11.60
2017-09-22T23:30:10.352Z,11.60
2017-09-22T23:32:37.877Z,11.50
2017-09-22T23:35:05.396Z,11.60
2017-09-22T23:37:32.925Z,11.60
2017-09-22T23:40:01.201Z,11.60
2017-09-22T23:42:29.470Z,11.60
2017-09-22T23:44:57.782Z,11.50
2017-09-22T23:47:25.296Z,11.50
2017-09-22T23:49:52.826Z,11.50
2017-09-22T23:52:20.337Z,11.50
2017-09-22T23:54:48.613Z,11.50
2017-09-22T23:57:16.910Z,11.40
2017-09-22T23:59:44.413Z,11.40
